Avoca, Texas
Current Conditions -  °F | °C
As of 4:52 AM on Friday 28 Nov 2014 (Local Time) from KABI Reporting Station
Clear Clear  
Wind Chill: 42°   Ceiling: Unl
Heat Index: 48°   Visibility: 10mi
Dew Point: 34°   Wind: 14mph
Humidity: 58%   Direction: 200°SSW
Pressure: 30.21"   Gusts: NA
Location:  32.87°N, 99.72°W
Report Text: KABI 281052Z 20012KT 10SM CLR 09/01 A3021 RMK AO2 SLP223 T00890011
Loading
Personal Weather Stations






























Interactive Weather Map New forecast layout! Learn more

10-Day Weather Forecast

Advertisements
Track Severe Weather on mobile